createdAt,value
2023-03-31T00:00:11.841Z,2.83
2023-03-31T00:02:41.390Z,2.63
2023-03-31T00:05:11.194Z,3.70
2023-03-31T00:07:40.827Z,3.38
2023-03-31T00:10:17.113Z,3.20
2023-03-31T00:12:44.844Z,2.80
2023-03-31T00:15:11.704Z,3.70
2023-03-31T00:17:38.313Z,3.88
2023-03-31T00:20:05.919Z,2.80
2023-03-31T00:22:32.537Z,3.10
2023-03-31T00:24:59.135Z,2.90
2023-03-31T00:27:28.218Z,2.57
2023-03-31T00:29:55.574Z,2.50
2023-03-31T00:32:22.386Z,2.92
2023-03-31T00:34:49.062Z,2.63
2023-03-31T00:37:15.982Z,2.58
2023-03-31T00:39:43.223Z,2.53
2023-03-31T00:42:12.960Z,2.92
2023-03-31T00:45:13.384Z,3.08
2023-03-31T00:47:46.519Z,2.33
2023-03-31T00:50:20.473Z,2.47
2023-03-31T00:52:52.516Z,2.50
2023-03-31T00:55:25.341Z,2.53
2023-03-31T00:57:53.693Z,2.30
2023-03-31T01:00:21.922Z,2.10
2023-03-31T01:02:55.813Z,2.65
2023-03-31T01:05:30.618Z,2.57
2023-03-31T01:08:00.250Z,2.92
2023-03-31T01:10:28.165Z,2.55
2023-03-31T01:12:57.281Z,2.47
2023-03-31T01:15:23.969Z,2.17
2023-03-31T01:17:55.637Z,2.30
2023-03-31T01:20:34.370Z,2.30
2023-03-31T01:23:28.217Z,2.50
2023-03-31T01:26:16.685Z,2.63
2023-03-31T01:29:02.334Z,2.33
2023-03-31T01:32:12.473Z,2.37
2023-03-31T01:34:41.993Z,2.13
2023-03-31T01:37:21.168Z,2.53
2023-03-31T01:40:08.350Z,2.72
2023-03-31T01:42:41.895Z,2.92
2023-03-31T01:45:24.672Z,3.00
2023-03-31T01:48:08.780Z,2.92
2023-03-31T01:50:58.240Z,2.63
2023-03-31T01:53:32.010Z,3.17
2023-03-31T01:56:05.898Z,3.00
2023-03-31T01:58:37.868Z,3.23
2023-03-31T02:01:50.149Z,2.83
2023-03-31T02:04:29.346Z,2.60
2023-03-31T02:07:03.595Z,3.63
2023-03-31T02:09:37.858Z,2.97
2023-03-31T02:12:08.409Z,3.57
2023-03-31T02:14:38.018Z,3.20
2023-03-31T02:17:08.316Z,4.13
2023-03-31T02:19:39.685Z,2.95
2023-03-31T02:22:08.533Z,3.20
2023-03-31T02:24:37.183Z,3.00
2023-03-31T02:27:37.471Z,3.10
2023-03-31T02:30:05.106Z,3.78
2023-03-31T02:32:37.322Z,3.38
2023-03-31T02:35:05.199Z,3.22
2023-03-31T02:37:32.046Z,3.03
2023-03-31T02:40:02.840Z,3.38
2023-03-31T02:42:29.648Z,3.90
2023-03-31T02:45:06.959Z,3.22
2023-03-31T02:47:34.320Z,3.30
2023-03-31T02:50:03.063Z,3.63
2023-03-31T02:52:32.757Z,3.38
2023-03-31T02:55:18.212Z,3.30
2023-03-31T02:57:59.824Z,3.10
2023-03-31T03:00:38.347Z,3.45
2023-03-31T03:03:25.480Z,3.83
2023-03-31T03:06:17.922Z,3.10
2023-03-31T03:08:49.076Z,3.42
2023-03-31T03:11:59.840Z,3.63
2023-03-31T03:14:45.669Z,2.80
2023-03-31T03:17:18.588Z,3.33
2023-03-31T03:19:52.629Z,3.33
2023-03-31T03:22:19.327Z,2.90
2023-03-31T03:24:46.180Z,2.67
2023-03-31T03:27:12.817Z,2.88
2023-03-31T03:29:39.411Z,2.77
2023-03-31T03:32:06.128Z,3.13
2023-03-31T03:34:32.747Z,2.80
2023-03-31T03:36:59.417Z,3.40
2023-03-31T03:39:26.178Z,2.40
2023-03-31T03:41:52.951Z,2.30
2023-03-31T03:44:19.560Z,3.10
2023-03-31T03:46:46.272Z,2.75
2023-03-31T03:49:13.003Z,3.10
2023-03-31T03:51:40.199Z,2.80
2023-03-31T03:54:06.877Z,2.57
2023-03-31T03:56:33.512Z,2.88
2023-03-31T03:59:00.374Z,2.45
2023-03-31T04:01:27.026Z,2.22
2023-03-31T04:03:53.640Z,2.20
2023-03-31T04:06:20.427Z,3.00
2023-03-31T04:08:47.084Z,2.28
2023-03-31T04:11:19.129Z,2.78
2023-03-31T04:13:46.941Z,2.40
2023-03-31T04:16:14.218Z,1.70
2023-03-31T04:18:43.847Z,2.23
2023-03-31T04:21:22.694Z,1.95
2023-03-31T04:24:04.247Z,1.88
2023-03-31T04:26:42.966Z,1.92
2023-03-31T04:29:16.618Z,2.30
2023-03-31T04:31:44.060Z,1.60
2023-03-31T04:34:13.418Z,1.73
2023-03-31T04:36:47.825Z,2.53
2023-03-31T04:39:16.816Z,1.92
2023-03-31T04:41:43.773Z,1.90
2023-03-31T04:44:10.752Z,1.53
2023-03-31T04:46:37.530Z,2.03
2023-03-31T04:49:05.670Z,2.30
2023-03-31T04:51:32.437Z,2.33
2023-03-31T04:53:59.107Z,2.30
2023-03-31T04:56:26.582Z,2.13
2023-03-31T04:58:53.425Z,2.85
2023-03-31T05:01:20.387Z,2.20
2023-03-31T05:03:49.880Z,2.30
2023-03-31T05:06:17.071Z,2.35
2023-03-31T05:08:44.601Z,2.50
2023-03-31T05:11:11.427Z,2.13
2023-03-31T05:13:38.372Z,2.30
2023-03-31T05:16:14.362Z,2.60
2023-03-31T05:18:41.502Z,2.55
2023-03-31T05:21:13.133Z,2.80
2023-03-31T05:23:40.444Z,2.70
2023-03-31T05:26:08.675Z,2.60
2023-03-31T05:28:36.417Z,2.40
2023-03-31T05:31:04.140Z,2.38
2023-03-31T05:33:31.203Z,2.43
2023-03-31T05:36:00.236Z,2.65
2023-03-31T05:38:31.503Z,2.60
2023-03-31T05:40:58.328Z,2.50
2023-03-31T05:43:25.068Z,2.25
2023-03-31T05:45:51.755Z,2.00
2023-03-31T05:48:18.549Z,2.15
2023-03-31T05:50:45.315Z,2.38
2023-03-31T05:53:12.069Z,2.08
2023-03-31T05:55:39.169Z,2.10
2023-03-31T05:58:06.794Z,2.30
2023-03-31T06:00:33.657Z,2.78
2023-03-31T06:03:00.337Z,3.10
2023-03-31T06:05:27.594Z,2.20
2023-03-31T06:07:54.295Z,2.30
2023-03-31T06:10:20.945Z,2.20
2023-03-31T06:12:47.580Z,2.00
2023-03-31T06:15:14.264Z,1.95
2023-03-31T06:17:41.065Z,2.03
2023-03-31T06:20:20.408Z,2.00
2023-03-31T06:22:53.544Z,1.70
2023-03-31T06:25:20.191Z,2.08
2023-03-31T06:27:46.896Z,1.88
2023-03-31T06:30:13.895Z,1.60
2023-03-31T06:32:40.581Z,1.98
2023-03-31T06:35:07.537Z,1.90
2023-03-31T06:37:34.143Z,2.03
2023-03-31T06:40:00.817Z,1.80
2023-03-31T06:42:27.461Z,1.40
2023-03-31T06:44:55.797Z,1.70
2023-03-31T06:47:22.562Z,1.90
2023-03-31T06:49:49.610Z,1.83
2023-03-31T06:52:16.487Z,1.77
2023-03-31T06:54:43.262Z,1.70
2023-03-31T06:57:10.115Z,1.50
2023-03-31T06:59:36.800Z,1.40
2023-03-31T07:02:03.639Z,1.83
2023-03-31T07:04:30.411Z,1.42
2023-03-31T07:06:59.554Z,1.20
2023-03-31T07:09:26.164Z,0.80
2023-03-31T07:11:53.113Z,1.47
2023-03-31T07:14:23.059Z,1.63
2023-03-31T07:16:50.705Z,1.40
2023-03-31T07:19:17.922Z,1.30
2023-03-31T07:21:44.700Z,1.25
2023-03-31T07:24:11.375Z,1.23
2023-03-31T07:26:37.967Z,1.10
2023-03-31T07:29:04.601Z,1.83
2023-03-31T07:31:31.269Z,1.52
2023-03-31T07:33:58.066Z,1.30
2023-03-31T07:36:24.771Z,1.77
2023-03-31T07:38:51.465Z,1.45
2023-03-31T07:41:20.398Z,1.52
2023-03-31T07:43:48.229Z,1.90
2023-03-31T07:46:24.028Z,1.50
2023-03-31T07:48:51.662Z,1.57
2023-03-31T07:51:21.216Z,1.30
2023-03-31T07:53:49.516Z,1.40
2023-03-31T07:56:16.998Z,1.38
2023-03-31T07:58:44.101Z,1.30
2023-03-31T08:01:16.869Z,1.40
2023-03-31T08:03:44.676Z,1.52
2023-03-31T08:06:11.632Z,1.58
2023-03-31T08:08:43.110Z,1.60
2023-03-31T08:11:10.209Z,1.90
2023-03-31T08:13:36.982Z,1.67
2023-03-31T08:16:04.413Z,1.50
2023-03-31T08:18:31.445Z,1.95
2023-03-31T08:20:58.131Z,1.67
2023-03-31T08:23:24.772Z,1.60
2023-03-31T08:25:51.558Z,1.83
2023-03-31T08:28:18.441Z,2.22
2023-03-31T08:30:45.154Z,2.00
2023-03-31T08:33:14.706Z,1.90
2023-03-31T08:35:41.413Z,1.88
2023-03-31T08:38:08.073Z,1.77
2023-03-31T08:40:34.963Z,1.90
2023-03-31T08:43:08.082Z,2.13
2023-03-31T08:45:38.717Z,2.10
2023-03-31T08:48:25.778Z,2.53
2023-03-31T08:51:04.566Z,2.33
2023-03-31T08:54:09.921Z,1.92
2023-03-31T08:56:41.734Z,2.60
2023-03-31T08:59:17.764Z,1.98
2023-03-31T09:01:56.842Z,2.70
2023-03-31T09:04:32.846Z,2.73
2023-03-31T09:07:30.728Z,3.15
2023-03-31T09:10:18.172Z,3.35
2023-03-31T09:13:09.711Z,3.30
2023-03-31T09:15:47.447Z,4.20
2023-03-31T09:18:27.576Z,3.10
2023-03-31T09:21:05.070Z,3.15
2023-03-31T09:23:54.202Z,3.40
2023-03-31T09:26:32.226Z,3.22
2023-03-31T09:29:02.332Z,3.45
2023-03-31T09:31:29.224Z,3.70
2023-03-31T09:34:01.680Z,3.10
2023-03-31T09:36:28.778Z,3.90
2023-03-31T09:38:55.616Z,3.22
2023-03-31T09:41:22.353Z,3.58
2023-03-31T09:43:50.009Z,3.60
2023-03-31T09:46:29.809Z,3.20
2023-03-31T09:49:15.486Z,4.15
2023-03-31T09:51:47.353Z,4.45
2023-03-31T09:54:29.332Z,3.35
2023-03-31T09:56:56.135Z,3.10
2023-03-31T09:59:34.054Z,3.20
2023-03-31T10:02:04.437Z,3.22
2023-03-31T10:04:34.226Z,3.47
2023-03-31T10:07:03.660Z,2.92
2023-03-31T10:09:33.618Z,3.40
2023-03-31T10:12:06.084Z,3.17
2023-03-31T10:14:40.692Z,3.08
2023-03-31T10:17:07.714Z,3.10
2023-03-31T10:19:36.460Z,3.80
2023-03-31T10:22:06.366Z,3.00
2023-03-31T10:24:38.677Z,3.35
2023-03-31T10:27:07.716Z,2.72
2023-03-31T10:29:35.158Z,3.22
2023-03-31T10:32:32.035Z,3.78
2023-03-31T10:35:06.514Z,3.37
2023-03-31T10:37:36.640Z,2.90
2023-03-31T10:40:15.689Z,3.38
2023-03-31T10:42:47.399Z,3.35
2023-03-31T10:45:35.670Z,2.95
2023-03-31T10:48:03.796Z,3.03
2023-03-31T10:50:32.947Z,3.00
2023-03-31T10:53:12.015Z,4.07
2023-03-31T10:55:47.424Z,2.50
2023-03-31T10:58:54.742Z,2.45
2023-03-31T11:01:57.150Z,3.20
2023-03-31T11:04:45.459Z,3.10
2023-03-31T11:07:28.306Z,3.10
2023-03-31T11:10:29.769Z,2.55
2023-03-31T11:13:22.272Z,3.70
2023-03-31T11:15:58.698Z,2.80
2023-03-31T11:18:35.293Z,3.10
2023-03-31T11:21:05.232Z,2.58
2023-03-31T11:23:53.637Z,2.80
2023-03-31T11:26:23.182Z,2.95
2023-03-31T11:29:16.429Z,2.70
2023-03-31T11:32:16.775Z,2.65
2023-03-31T11:34:48.970Z,2.50
2023-03-31T11:37:24.755Z,2.78
2023-03-31T11:39:58.586Z,3.08
2023-03-31T11:42:37.198Z,2.70
2023-03-31T11:45:31.714Z,3.10
2023-03-31T11:48:07.532Z,2.92
2023-03-31T11:50:39.736Z,2.25
2023-03-31T11:53:18.353Z,2.83
2023-03-31T11:55:48.763Z,2.80
2023-03-31T11:58:23.409Z,2.38
2023-03-31T12:00:55.733Z,2.58
2023-03-31T12:03:44.717Z,2.38
2023-03-31T12:06:19.282Z,3.17
2023-03-31T12:08:50.984Z,3.10
2023-03-31T12:11:29.185Z,2.90
2023-03-31T12:14:34.086Z,3.10
2023-03-31T12:17:08.169Z,2.72
2023-03-31T12:19:40.270Z,2.58
2023-03-31T12:22:22.176Z,2.90
2023-03-31T12:24:48.876Z,3.13
2023-03-31T12:27:30.477Z,2.97
2023-03-31T12:30:06.733Z,3.20
2023-03-31T12:32:37.545Z,2.30
2023-03-31T12:35:14.084Z,2.10
2023-03-31T12:38:08.196Z,2.55
2023-03-31T12:40:46.073Z,2.50
2023-03-31T12:43:24.520Z,2.38
2023-03-31T12:46:02.114Z,2.53
2023-03-31T12:48:56.608Z,2.57
2023-03-31T12:51:38.361Z,2.78
2023-03-31T12:54:20.525Z,2.80
2023-03-31T12:57:03.919Z,2.22
2023-03-31T12:59:45.654Z,2.78
2023-03-31T13:02:20.027Z,2.50
2023-03-31T13:04:46.765Z,2.75
2023-03-31T13:07:29.185Z,2.65
2023-03-31T13:10:21.676Z,2.92
2023-03-31T13:13:00.914Z,3.25
2023-03-31T13:15:30.095Z,2.60
2023-03-31T13:18:06.487Z,2.67
2023-03-31T13:20:42.034Z,2.85
2023-03-31T13:23:11.756Z,3.10
2023-03-31T13:25:52.416Z,3.08
2023-03-31T13:28:22.175Z,2.90
2023-03-31T13:30:56.054Z,2.83
2023-03-31T13:33:42.834Z,2.80
2023-03-31T13:36:46.030Z,3.22
2023-03-31T13:39:15.421Z,2.78
2023-03-31T13:41:49.296Z,2.30
2023-03-31T13:44:55.390Z,2.00
2023-03-31T13:47:53.955Z,2.63
2023-03-31T13:50:48.036Z,2.83
2023-03-31T13:53:37.936Z,2.40
2023-03-31T13:56:33.664Z,2.30
2023-03-31T13:59:29.130Z,2.63
2023-03-31T14:02:36.644Z,2.75
2023-03-31T14:05:32.879Z,2.45
2023-03-31T14:08:05.402Z,2.70
2023-03-31T14:10:37.064Z,2.10
2023-03-31T14:13:18.266Z,2.60
2023-03-31T14:15:55.980Z,2.78
2023-03-31T14:18:33.738Z,2.10
2023-03-31T14:21:24.517Z,1.95
2023-03-31T14:24:26.264Z,1.90
2023-03-31T14:27:39.217Z,2.40
2023-03-31T14:30:38.421Z,2.85
2023-03-31T14:33:34.282Z,2.10
2023-03-31T14:36:08.006Z,2.08
2023-03-31T14:38:35.090Z,2.20
2023-03-31T14:41:02.002Z,1.95
2023-03-31T14:43:30.268Z,2.10
2023-03-31T14:46:08.249Z,2.38
2023-03-31T14:48:47.084Z,2.38
2023-03-31T14:51:19.153Z,2.00
2023-03-31T14:53:45.909Z,1.67
2023-03-31T14:56:20.647Z,2.80
2023-03-31T14:58:50.464Z,2.00
2023-03-31T15:01:23.850Z,1.70
2023-03-31T15:03:53.301Z,1.90
2023-03-31T15:06:19.997Z,2.10
2023-03-31T15:08:46.952Z,1.70
2023-03-31T15:11:19.574Z,2.00
2023-03-31T15:14:00.910Z,2.08
2023-03-31T15:16:46.032Z,1.60
2023-03-31T15:19:16.207Z,1.70
2023-03-31T15:21:43.745Z,2.00
2023-03-31T15:24:14.551Z,1.85
2023-03-31T15:27:03.836Z,1.88
2023-03-31T15:29:49.099Z,2.30
2023-03-31T15:32:28.964Z,1.40
2023-03-31T15:35:00.232Z,1.75
2023-03-31T15:37:43.864Z,1.50
2023-03-31T15:40:26.217Z,1.42
2023-03-31T15:43:13.325Z,2.10
2023-03-31T15:45:57.835Z,1.77
2023-03-31T15:48:35.540Z,1.90
2023-03-31T15:51:07.927Z,1.70
2023-03-31T15:53:51.195Z,1.60
2023-03-31T15:56:38.052Z,1.50
2023-03-31T15:59:05.968Z,1.60
2023-03-31T16:01:53.918Z,2.05
2023-03-31T16:04:20.911Z,2.00
2023-03-31T16:06:56.578Z,1.67
2023-03-31T16:09:26.647Z,1.67
2023-03-31T16:12:00.320Z,1.60
2023-03-31T16:14:36.645Z,1.85
2023-03-31T16:17:08.482Z,1.80
2023-03-31T16:20:10.951Z,1.83
2023-03-31T16:22:47.938Z,1.73
2023-03-31T16:25:20.063Z,1.58
2023-03-31T16:27:51.138Z,2.03
2023-03-31T16:30:21.010Z,1.55
2023-03-31T16:33:07.066Z,1.23
2023-03-31T16:35:45.181Z,1.77
2023-03-31T16:38:12.824Z,1.50
2023-03-31T16:40:41.720Z,2.00
2023-03-31T16:43:14.511Z,1.63
2023-03-31T16:46:03.321Z,1.90
2023-03-31T16:48:33.758Z,1.40
2023-03-31T16:51:01.422Z,1.42
2023-03-31T16:53:31.051Z,1.45
2023-03-31T16:55:58.005Z,1.85
2023-03-31T16:58:26.197Z,1.80
2023-03-31T17:00:53.384Z,2.00
2023-03-31T17:03:20.473Z,1.75
2023-03-31T17:05:52.613Z,1.83
2023-03-31T17:08:21.562Z,1.55
2023-03-31T17:10:58.155Z,1.60
2023-03-31T17:13:24.797Z,1.30
2023-03-31T17:16:01.470Z,1.55
2023-03-31T17:18:35.550Z,1.50
2023-03-31T17:21:11.635Z,1.80
2023-03-31T17:23:39.242Z,1.55
2023-03-31T17:26:07.092Z,1.63
2023-03-31T17:28:34.200Z,1.52
2023-03-31T17:31:01.724Z,1.85
2023-03-31T17:33:28.487Z,1.73
2023-03-31T17:36:01.138Z,1.88
2023-03-31T17:38:27.808Z,1.77
2023-03-31T17:40:54.620Z,2.00
2023-03-31T17:43:22.013Z,1.65
2023-03-31T17:45:48.716Z,1.77
2023-03-31T17:48:16.317Z,1.70
2023-03-31T17:50:43.167Z,1.40
2023-03-31T17:53:09.807Z,1.85
2023-03-31T17:55:38.346Z,1.83
2023-03-31T17:58:06.391Z,1.85
2023-03-31T18:00:33.417Z,1.92
2023-03-31T18:03:00.341Z,1.87
2023-03-31T18:05:27.101Z,1.88
2023-03-31T18:07:53.742Z,1.70
2023-03-31T18:10:22.474Z,1.90
2023-03-31T18:12:49.106Z,1.92
2023-03-31T18:15:16.491Z,1.70
2023-03-31T18:17:43.311Z,1.90
2023-03-31T18:20:10.977Z,2.10
2023-03-31T18:22:37.834Z,2.00
2023-03-31T18:25:05.325Z,1.80
2023-03-31T18:27:31.995Z,2.10
2023-03-31T18:29:58.660Z,2.22
2023-03-31T18:32:26.505Z,2.40
2023-03-31T18:34:53.193Z,2.58
2023-03-31T18:37:19.768Z,2.80
2023-03-31T18:39:46.456Z,2.37
2023-03-31T18:42:13.364Z,3.00
2023-03-31T18:44:40.346Z,2.90
2023-03-31T18:47:07.097Z,3.58
2023-03-31T18:49:33.834Z,3.60
2023-03-31T18:52:02.408Z,2.80
2023-03-31T18:54:29.048Z,3.63
2023-03-31T18:56:55.712Z,3.90
2023-03-31T18:59:23.917Z,3.38
2023-03-31T19:01:55.011Z,4.60
2023-03-31T19:04:23.453Z,3.77
2023-03-31T19:06:56.196Z,3.95
2023-03-31T19:09:26.466Z,4.35
2023-03-31T19:11:53.845Z,3.78
2023-03-31T19:14:20.912Z,3.70
2023-03-31T19:16:47.593Z,4.10
2023-03-31T19:19:14.372Z,3.90
2023-03-31T19:21:41.702Z,3.67
2023-03-31T19:24:09.553Z,3.55
2023-03-31T19:26:37.173Z,4.30
2023-03-31T19:29:05.179Z,3.70
2023-03-31T19:31:38.298Z,3.55
2023-03-31T19:34:06.331Z,3.47
2023-03-31T19:36:33.012Z,4.10
2023-03-31T19:39:01.066Z,3.60
2023-03-31T19:41:28.071Z,3.27
2023-03-31T19:43:55.315Z,3.90
2023-03-31T19:46:22.045Z,3.78
2023-03-31T19:48:48.684Z,3.78
2023-03-31T19:51:15.585Z,4.50
2023-03-31T19:53:42.350Z,4.20
2023-03-31T19:56:11.855Z,4.38
2023-03-31T19:58:39.109Z,3.97
2023-03-31T20:01:09.477Z,4.32
2023-03-31T20:03:36.687Z,4.55
2023-03-31T20:06:07.625Z,4.40
2023-03-31T20:08:35.256Z,4.05
2023-03-31T20:11:03.827Z,4.53
2023-03-31T20:13:32.524Z,4.97
2023-03-31T20:16:02.214Z,4.63
2023-03-31T20:18:29.158Z,4.70
2023-03-31T20:21:03.362Z,4.28
2023-03-31T20:23:30.366Z,4.90
2023-03-31T20:25:57.111Z,4.60
2023-03-31T20:28:23.762Z,4.60
2023-03-31T20:30:50.357Z,4.43
2023-03-31T20:33:17.584Z,4.80
2023-03-31T20:35:44.226Z,4.90
2023-03-31T20:38:10.888Z,4.75
2023-03-31T20:40:37.573Z,5.40
2023-03-31T20:43:04.427Z,4.70
2023-03-31T20:45:34.666Z,5.32
2023-03-31T20:48:01.871Z,4.70
2023-03-31T20:50:28.664Z,4.53
2023-03-31T20:52:55.303Z,4.50
2023-03-31T20:55:22.253Z,4.80
2023-03-31T20:57:48.884Z,4.85
2023-03-31T21:00:15.806Z,4.68
2023-03-31T21:02:42.912Z,4.93
2023-03-31T21:05:09.743Z,4.70
2023-03-31T21:07:36.391Z,4.57
2023-03-31T21:10:04.518Z,4.10
2023-03-31T21:12:31.081Z,4.40
2023-03-31T21:14:57.760Z,4.18
2023-03-31T21:17:24.399Z,4.00
2023-03-31T21:19:51.017Z,4.50
2023-03-31T21:22:18.015Z,3.85
2023-03-31T21:24:44.602Z,4.45
2023-03-31T21:27:11.225Z,3.95
2023-03-31T21:29:38.026Z,3.42
2023-03-31T21:32:06.719Z,3.73
2023-03-31T21:34:33.449Z,3.30
2023-03-31T21:37:01.491Z,3.50
2023-03-31T21:39:28.203Z,3.75
2023-03-31T21:41:54.817Z,3.13
2023-03-31T21:44:21.696Z,3.30
2023-03-31T21:46:48.341Z,3.42
2023-03-31T21:49:16.686Z,3.47
2023-03-31T21:51:44.169Z,2.58
2023-03-31T21:54:11.577Z,2.80
2023-03-31T21:56:38.177Z,2.90
2023-03-31T21:59:04.846Z,3.30
2023-03-31T22:01:32.370Z,3.08
2023-03-31T22:03:59.395Z,3.20
2023-03-31T22:06:26.504Z,3.58
2023-03-31T22:08:53.091Z,2.80
2023-03-31T22:11:19.831Z,2.83
2023-03-31T22:13:46.513Z,3.22
2023-03-31T22:16:19.034Z,2.78
2023-03-31T22:18:47.180Z,2.88
2023-03-31T22:21:21.025Z,2.57
2023-03-31T22:23:48.128Z,2.90
2023-03-31T22:26:14.728Z,2.50
2023-03-31T22:28:41.422Z,2.00
2023-03-31T22:31:08.569Z,2.30
2023-03-31T22:33:35.388Z,2.37
2023-03-31T22:36:02.313Z,1.75
2023-03-31T22:38:28.950Z,2.42
2023-03-31T22:40:55.613Z,2.53
2023-03-31T22:43:22.594Z,2.70
2023-03-31T22:45:49.281Z,3.07
2023-03-31T22:48:16.321Z,2.67
2023-03-31T22:50:43.393Z,2.78
2023-03-31T22:53:10.887Z,2.50
2023-03-31T22:55:54.319Z,3.17
2023-03-31T22:58:21.508Z,3.17
2023-03-31T23:00:55.784Z,2.97
2023-03-31T23:03:22.457Z,3.70
2023-03-31T23:05:49.072Z,4.25
2023-03-31T23:08:15.686Z,3.88
2023-03-31T23:10:42.377Z,3.90
2023-03-31T23:13:08.998Z,4.72
2023-03-31T23:15:36.690Z,4.90
2023-03-31T23:18:03.469Z,4.45
2023-03-31T23:20:30.496Z,4.80
2023-03-31T23:22:58.318Z,5.73
2023-03-31T23:25:25.760Z,5.03
2023-03-31T23:27:52.384Z,6.07
2023-03-31T23:30:19.056Z,6.13
2023-03-31T23:32:45.627Z,7.28
2023-03-31T23:35:12.333Z,7.33
2023-03-31T23:37:39.089Z,6.85
2023-03-31T23:40:06.490Z,7.70
2023-03-31T23:42:33.173Z,8.13
2023-03-31T23:44:59.808Z,7.28
2023-03-31T23:47:26.449Z,8.13
2023-03-31T23:49:54.229Z,7.97
2023-03-31T23:52:21.239Z,9.80
2023-03-31T23:54:47.951Z,8.68
2023-03-31T23:57:14.716Z,9.35
2023-03-31T23:59:41.462Z,9.40
